createdAt,value
2022-09-22T00:01:31.437Z,9.70
2022-09-22T00:04:01.615Z,7.70
2022-09-22T00:06:31.330Z,9.67
2022-09-22T00:09:00.820Z,6.10
2022-09-22T00:11:30.730Z,8.20
2022-09-22T00:14:03.787Z,12.03
2022-09-22T00:16:40.270Z,6.73
2022-09-22T00:19:08.739Z,5.20
2022-09-22T00:21:36.358Z,9.87
2022-09-22T00:24:04.921Z,4.83
2022-09-22T00:26:31.926Z,5.67
2022-09-22T00:29:03.656Z,4.33
2022-09-22T00:31:30.739Z,7.73
2022-09-22T00:33:58.275Z,2.47
2022-09-22T00:36:26.987Z,8.97
2022-09-22T00:38:56.503Z,7.73
2022-09-22T00:41:27.874Z,5.20
2022-09-22T00:44:25.515Z,3.53
2022-09-22T00:47:23.251Z,2.63
2022-09-22T00:50:03.704Z,1.97
2022-09-22T00:52:35.569Z,5.27
2022-09-22T00:55:17.709Z,5.03
2022-09-22T00:57:46.867Z,2.63
2022-09-22T01:00:15.016Z,3.77
2022-09-22T01:02:42.359Z,4.70
2022-09-22T01:05:09.825Z,1.57
2022-09-22T01:07:37.920Z,4.43
2022-09-22T01:10:05.111Z,3.57
2022-09-22T01:12:32.579Z,3.13
2022-09-22T01:15:11.360Z,5.80
2022-09-22T01:18:03.964Z,6.37
2022-09-22T01:20:56.038Z,4.20
2022-09-22T01:23:41.178Z,5.03
2022-09-22T01:26:17.152Z,6.10
2022-09-22T01:28:54.138Z,5.53
2022-09-22T01:31:38.906Z,4.23
2022-09-22T01:34:19.697Z,3.97
2022-09-22T01:37:04.604Z,4.27
2022-09-22T01:39:44.842Z,3.53
2022-09-22T01:42:28.190Z,3.30
2022-09-22T01:45:08.652Z,6.33
2022-09-22T01:47:53.488Z,2.93
2022-09-22T01:50:35.957Z,3.53
2022-09-22T01:53:09.560Z,2.37
2022-09-22T01:55:43.124Z,2.53
2022-09-22T01:58:17.720Z,2.83
2022-09-22T02:00:52.074Z,3.83
2022-09-22T02:03:32.187Z,2.67
2022-09-22T02:06:16.435Z,4.50
2022-09-22T02:08:59.372Z,5.60
2022-09-22T02:11:26.712Z,5.60
2022-09-22T02:13:54.018Z,12.70
2022-09-22T02:16:24.017Z,8.80
2022-09-22T02:19:10.437Z,16.93
2022-09-22T02:21:41.946Z,7.93
2022-09-22T02:24:27.141Z,4.83
2022-09-22T02:26:55.371Z,5.20
2022-09-22T02:29:23.051Z,7.80
2022-09-22T02:31:51.846Z,7.57
2022-09-22T02:34:18.902Z,3.47
2022-09-22T02:37:02.302Z,2.57
2022-09-22T02:40:01.676Z,2.43
2022-09-22T02:42:42.492Z,2.47
2022-09-22T02:45:49.469Z,2.80
2022-09-22T02:48:31.036Z,2.10
2022-09-22T02:50:58.311Z,2.27
2022-09-22T02:53:25.319Z,3.03
2022-09-22T02:55:52.627Z,6.60
2022-09-22T02:58:19.574Z,2.00
2022-09-22T03:00:46.535Z,2.43
2022-09-22T03:03:13.539Z,2.97
2022-09-22T03:05:40.527Z,3.37
2022-09-22T03:08:07.712Z,2.10
2022-09-22T03:10:34.708Z,3.13
2022-09-22T03:13:17.747Z,3.47
2022-09-22T03:15:46.155Z,1.97
2022-09-22T03:18:14.011Z,2.20
2022-09-22T03:20:41.064Z,4.23
2022-09-22T03:23:08.334Z,2.83
2022-09-22T03:25:35.346Z,6.47
2022-09-22T03:28:02.650Z,3.63
2022-09-22T03:30:29.732Z,2.17
2022-09-22T03:32:57.231Z,3.37
2022-09-22T03:35:24.191Z,1.53
2022-09-22T03:37:51.184Z,5.13
2022-09-22T03:40:18.315Z,3.47
2022-09-22T03:42:45.320Z,5.57
2022-09-22T03:45:12.864Z,4.93
2022-09-22T03:47:39.918Z,8.13
2022-09-22T03:50:07.564Z,3.23
2022-09-22T03:52:34.843Z,4.60
2022-09-22T03:55:03.171Z,7.47
2022-09-22T03:57:30.363Z,7.47
2022-09-22T03:59:57.373Z,6.27
2022-09-22T04:02:24.520Z,4.93
2022-09-22T04:04:51.659Z,13.77
2022-09-22T04:07:18.735Z,6.43
2022-09-22T04:09:45.663Z,14.50
2022-09-22T04:12:12.646Z,6.40
2022-09-22T04:14:39.595Z,15.37
2022-09-22T04:17:06.620Z,15.77
2022-09-22T04:19:35.791Z,7.03
2022-09-22T04:22:03.619Z,4.63
2022-09-22T04:24:30.780Z,9.23
2022-09-22T04:27:18.617Z,12.43
2022-09-22T04:29:44.715Z,1.90
2022-09-22T04:32:11.672Z,5.50
2022-09-22T04:34:38.719Z,11.27
2022-09-22T04:37:05.908Z,11.10
2022-09-22T04:39:33.381Z,18.50
2022-09-22T04:42:00.385Z,16.70
2022-09-22T04:44:27.412Z,9.20
2022-09-22T04:46:55.973Z,10.60
2022-09-22T04:49:24.362Z,6.67
2022-09-22T04:51:51.347Z,10.50
2022-09-22T04:54:18.293Z,14.90
2022-09-22T04:56:45.383Z,2.73
2022-09-22T04:59:12.519Z,10.23
2022-09-22T05:01:39.609Z,17.37
2022-09-22T05:04:06.641Z,19.80
2022-09-22T05:06:33.628Z,7.73
2022-09-22T05:09:00.660Z,5.10
2022-09-22T05:11:27.806Z,3.77
2022-09-22T05:13:55.651Z,1.73
2022-09-22T05:16:23.460Z,3.53
2022-09-22T05:18:50.598Z,24.97
2022-09-22T05:21:18.951Z,8.43
2022-09-22T05:23:46.515Z,7.53
2022-09-22T05:26:13.524Z,7.97
2022-09-22T05:28:40.982Z,8.20
2022-09-22T05:31:08.484Z,13.20
2022-09-22T05:33:35.532Z,11.13
2022-09-22T05:36:03.175Z,15.60
2022-09-22T05:38:30.147Z,6.27
2022-09-22T05:40:57.177Z,13.47
2022-09-22T05:43:24.210Z,10.10
2022-09-22T05:45:51.296Z,9.50
2022-09-22T05:48:18.408Z,4.73
2022-09-22T05:50:45.581Z,4.50
2022-09-22T05:53:13.544Z,5.50
2022-09-22T05:55:41.331Z,5.03
2022-09-22T05:58:11.848Z,2.23
2022-09-22T06:00:39.885Z,1.63
2022-09-22T06:03:07.320Z,4.90
2022-09-22T06:05:37.811Z,2.17
2022-09-22T06:08:06.659Z,2.53
2022-09-22T06:10:35.508Z,2.60
2022-09-22T06:13:07.910Z,3.47
2022-09-22T06:15:36.296Z,2.00
2022-09-22T06:18:07.125Z,2.93
2022-09-22T06:20:35.280Z,2.43
2022-09-22T06:23:02.672Z,1.63
2022-09-22T06:25:29.959Z,1.87
2022-09-22T06:28:09.719Z,2.57
2022-09-22T06:30:40.192Z,4.63
2022-09-22T06:33:08.134Z,2.53
2022-09-22T06:35:38.194Z,3.07
2022-09-22T06:38:10.099Z,3.42
2022-09-22T06:40:37.088Z,3.05
2022-09-22T06:43:10.677Z,1.10
2022-09-22T06:45:39.309Z,2.97
2022-09-22T06:48:10.138Z,1.40
2022-09-22T06:50:38.901Z,1.27
2022-09-22T06:53:08.319Z,1.58
2022-09-22T06:55:36.087Z,1.52
2022-09-22T06:58:03.283Z,1.27
2022-09-22T07:00:33.183Z,1.10
2022-09-22T07:03:13.671Z,5.82
2022-09-22T07:05:40.616Z,5.70
2022-09-22T07:08:09.050Z,3.45
2022-09-22T07:10:39.062Z,1.52
2022-09-22T07:13:06.585Z,1.35
2022-09-22T07:15:35.671Z,1.13
2022-09-22T07:18:04.428Z,2.08
2022-09-22T07:20:33.734Z,0.88
2022-09-22T07:23:01.059Z,1.48
2022-09-22T07:25:28.959Z,0.85
2022-09-22T07:28:05.117Z,1.48
2022-09-22T07:30:36.359Z,2.55
2022-09-22T07:33:03.682Z,1.63
2022-09-22T07:35:31.783Z,1.10
2022-09-22T07:38:03.415Z,0.98
2022-09-22T07:40:31.150Z,1.88
2022-09-22T07:42:58.273Z,0.95
2022-09-22T07:45:25.319Z,0.93
2022-09-22T07:48:10.736Z,2.55
2022-09-22T07:50:37.676Z,2.17
2022-09-22T07:53:04.728Z,3.28
2022-09-22T07:55:36.740Z,3.50
2022-09-22T07:58:03.843Z,1.75
2022-09-22T08:00:34.644Z,2.25
2022-09-22T08:03:01.840Z,2.28
2022-09-22T08:05:29.631Z,3.42
2022-09-22T08:07:58.357Z,3.25
2022-09-22T08:10:26.429Z,4.88
2022-09-22T08:12:54.905Z,3.08
2022-09-22T08:15:26.912Z,2.45
2022-09-22T08:17:58.262Z,3.28
2022-09-22T08:20:29.102Z,1.60
2022-09-22T08:23:01.416Z,1.48
2022-09-22T08:25:28.880Z,3.22
2022-09-22T08:27:55.855Z,2.88
2022-09-22T08:30:22.814Z,7.20
2022-09-22T08:32:49.845Z,2.30
2022-09-22T08:35:16.799Z,6.18
2022-09-22T08:37:44.505Z,9.88
2022-09-22T08:40:23.807Z,12.00
2022-09-22T08:42:55.708Z,6.05
2022-09-22T08:45:30.904Z,10.75
2022-09-22T08:48:37.640Z,8.38
2022-09-22T08:51:49.086Z,8.63
2022-09-22T08:54:17.132Z,4.63
2022-09-22T08:57:33.719Z,7.10
2022-09-22T09:00:17.848Z,7.07
2022-09-22T09:03:01.959Z,3.35
2022-09-22T09:05:48.446Z,4.07
2022-09-22T09:08:30.439Z,4.00
2022-09-22T09:11:14.628Z,5.80
2022-09-22T09:14:14.051Z,1.10
2022-09-22T09:16:52.698Z,4.38
2022-09-22T09:19:33.856Z,4.00
2022-09-22T09:22:06.442Z,2.85
2022-09-22T09:27:30.332Z,2.05
2022-09-22T09:30:07.010Z,2.60
2022-09-22T09:32:49.227Z,4.40
2022-09-22T09:35:26.715Z,1.50
2022-09-22T09:37:59.659Z,4.28
2022-09-22T09:40:27.728Z,1.58
2022-09-22T09:43:06.935Z,1.48
2022-09-22T09:45:51.894Z,6.55
2022-09-22T09:48:57.381Z,4.38
2022-09-22T09:51:24.667Z,4.45
2022-09-22T09:53:54.600Z,3.03
2022-09-22T09:56:29.575Z,0.82
2022-09-22T09:59:18.984Z,3.42
2022-09-22T10:01:48.875Z,2.63
2022-09-22T10:04:50.189Z,2.05
2022-09-22T10:07:21.500Z,2.75
2022-09-22T10:09:52.287Z,1.15
2022-09-22T10:12:30.948Z,2.67
2022-09-22T10:15:00.527Z,3.80
2022-09-22T10:17:30.550Z,5.45
2022-09-22T10:20:22.866Z,2.08
2022-09-22T10:22:49.984Z,4.97
2022-09-22T10:25:28.410Z,3.65
2022-09-22T10:28:09.441Z,2.88
2022-09-22T10:30:41.177Z,3.88
2022-09-22T10:33:22.039Z,3.83
2022-09-22T10:36:10.968Z,3.33
2022-09-22T10:38:43.634Z,5.68
2022-09-22T10:41:35.381Z,3.40
2022-09-22T10:44:39.429Z,3.22
2022-09-22T10:47:22.501Z,1.00
2022-09-22T10:50:09.571Z,3.47
2022-09-22T10:53:02.477Z,2.92
2022-09-22T10:55:46.160Z,3.33
2022-09-22T10:58:42.843Z,4.57
2022-09-22T11:01:47.318Z,5.20
2022-09-22T11:04:38.890Z,6.85
2022-09-22T11:07:31.327Z,6.30
2022-09-22T11:10:42.260Z,3.60
2022-09-22T11:13:22.502Z,2.63
2022-09-22T11:16:25.158Z,1.63
2022-09-22T11:19:26.604Z,4.00
2022-09-22T11:22:11.675Z,2.35
2022-09-22T11:24:53.326Z,5.47
2022-09-22T11:27:25.832Z,3.80
2022-09-22T11:30:10.730Z,2.58
2022-09-22T11:32:43.998Z,4.20
2022-09-22T11:35:16.908Z,3.58
2022-09-22T11:38:17.934Z,4.55
2022-09-22T11:41:09.047Z,5.25
2022-09-22T11:44:19.511Z,3.65
2022-09-22T11:47:01.117Z,7.55
2022-09-22T11:49:34.161Z,6.70
2022-09-22T11:52:17.594Z,4.47
2022-09-22T11:55:15.841Z,4.45
2022-09-22T11:57:47.355Z,6.15
2022-09-22T12:00:19.708Z,2.72
2022-09-22T12:02:49.953Z,6.50
2022-09-22T12:05:30.973Z,4.15
2022-09-22T12:08:27.532Z,3.15
2022-09-22T12:10:55.878Z,6.38
2022-09-22T12:13:25.562Z,3.95
2022-09-22T12:15:55.736Z,3.78
2022-09-22T12:18:39.904Z,6.95
2022-09-22T12:21:15.765Z,3.30
2022-09-22T12:23:47.695Z,3.70
2022-09-22T12:26:31.311Z,4.22
2022-09-22T12:29:00.954Z,3.05
2022-09-22T12:31:42.273Z,5.97
2022-09-22T12:34:39.337Z,6.88
2022-09-22T12:37:22.792Z,5.35
2022-09-22T12:39:49.999Z,3.88
2022-09-22T12:42:22.728Z,9.07
2022-09-22T12:44:58.081Z,3.97
2022-09-22T12:47:34.628Z,3.35
2022-09-22T12:50:23.174Z,4.13
2022-09-22T12:52:53.885Z,4.13
2022-09-22T12:55:29.960Z,5.70
2022-09-22T12:57:58.655Z,5.00
2022-09-22T13:00:35.906Z,3.88
2022-09-22T13:03:24.492Z,4.35
2022-09-22T13:05:58.383Z,4.00
2022-09-22T13:08:45.528Z,6.30
2022-09-22T13:11:12.555Z,6.30
2022-09-22T13:13:50.694Z,6.68
2022-09-22T13:16:18.029Z,5.32
2022-09-22T13:18:46.004Z,5.10
2022-09-22T13:21:13.009Z,4.00
2022-09-22T13:23:58.954Z,2.40
2022-09-22T13:26:34.535Z,5.65
2022-09-22T13:29:17.753Z,2.38
2022-09-22T13:31:51.108Z,4.75
2022-09-22T13:34:24.746Z,4.38
2022-09-22T13:37:00.524Z,7.70
2022-09-22T13:39:43.456Z,2.67
2022-09-22T13:42:19.329Z,3.20
2022-09-22T13:44:56.736Z,4.78
2022-09-22T13:47:25.248Z,5.95
2022-09-22T13:50:01.450Z,7.63
2022-09-22T13:52:31.356Z,7.40
2022-09-22T13:55:09.788Z,6.70
2022-09-22T13:57:38.545Z,6.13
2022-09-22T14:00:10.404Z,5.03
2022-09-22T14:02:45.311Z,5.22
2022-09-22T14:05:21.827Z,6.20
2022-09-22T14:08:10.658Z,4.53
2022-09-22T14:10:38.150Z,11.25
2022-09-22T14:13:05.148Z,7.78
2022-09-22T14:15:37.867Z,6.88
2022-09-22T14:18:16.945Z,5.78
2022-09-22T14:20:45.362Z,10.32
2022-09-22T14:23:30.916Z,8.20
2022-09-22T14:26:15.736Z,5.10
2022-09-22T14:28:42.784Z,9.77
2022-09-22T14:31:20.397Z,3.67
2022-09-22T14:33:47.701Z,4.88
2022-09-22T14:36:21.158Z,3.88
2022-09-22T14:39:04.382Z,3.67
2022-09-22T14:41:38.298Z,16.35
2022-09-22T14:44:35.198Z,5.43
2022-09-22T14:47:26.156Z,10.27
2022-09-22T14:50:18.797Z,9.43
2022-09-22T14:53:06.785Z,10.38
2022-09-22T14:55:41.325Z,8.20
2022-09-22T14:58:20.648Z,6.43
2022-09-22T15:01:18.156Z,7.13
2022-09-22T15:04:02.842Z,4.32
2022-09-22T15:06:37.697Z,7.47
2022-09-22T15:09:05.303Z,6.60
2022-09-22T15:12:00.264Z,5.45
2022-09-22T15:14:36.766Z,5.80
2022-09-22T15:17:56.004Z,4.05
2022-09-22T15:20:32.092Z,6.70
2022-09-22T15:22:59.130Z,6.22
2022-09-22T15:25:26.160Z,7.60
2022-09-22T15:27:53.528Z,7.22
2022-09-22T15:30:22.124Z,7.85
2022-09-22T15:32:49.576Z,4.70
2022-09-22T15:35:20.969Z,3.47
2022-09-22T15:37:50.143Z,4.22
2022-09-22T15:40:21.728Z,4.28
2022-09-22T15:43:11.328Z,5.90
2022-09-22T15:45:37.899Z,5.57
2022-09-22T15:48:04.986Z,4.00
2022-09-22T15:50:32.481Z,8.35
2022-09-22T15:52:59.427Z,8.18
2022-09-22T15:55:26.398Z,5.07
2022-09-22T15:57:57.007Z,7.50
2022-09-22T16:00:27.665Z,7.50
2022-09-22T16:02:54.795Z,6.85
2022-09-22T16:05:22.718Z,10.80
2022-09-22T16:07:52.181Z,4.20
2022-09-22T16:10:23.551Z,6.90
2022-09-22T16:12:50.702Z,8.05
2022-09-22T16:15:18.115Z,5.93
2022-09-22T16:17:46.123Z,3.58
2022-09-22T16:20:16.933Z,4.88
2022-09-22T16:22:45.479Z,9.02
2022-09-22T16:25:15.381Z,12.38
2022-09-22T16:27:43.113Z,6.72
2022-09-22T16:30:10.648Z,8.27
2022-09-22T16:32:37.613Z,6.75
2022-09-22T16:35:04.892Z,8.85
2022-09-22T16:37:32.040Z,7.20
2022-09-22T16:39:59.028Z,12.75
2022-09-22T16:42:26.072Z,8.27
2022-09-22T16:44:53.032Z,9.57
2022-09-22T16:47:22.989Z,11.60
2022-09-22T16:49:51.442Z,8.30
2022-09-22T16:52:20.075Z,9.77
2022-09-22T16:54:47.136Z,16.15
2022-09-22T16:57:14.139Z,10.85
2022-09-22T16:59:41.184Z,14.30
2022-09-22T17:02:10.449Z,16.55
2022-09-22T17:04:37.471Z,17.33
2022-09-22T17:07:05.681Z,13.30
2022-09-22T17:09:32.785Z,16.52
2022-09-22T17:12:00.949Z,19.08
2022-09-22T17:14:29.067Z,15.98
2022-09-22T17:16:57.756Z,16.60
2022-09-22T17:19:26.737Z,13.68
2022-09-22T17:21:55.768Z,13.20
2022-09-22T17:24:24.233Z,12.15
2022-09-22T17:26:56.820Z,13.93
2022-09-22T17:29:26.487Z,15.18
2022-09-22T17:31:59.456Z,10.25
2022-09-22T17:34:28.605Z,8.75
2022-09-22T17:36:57.111Z,14.93
2022-09-22T17:39:25.307Z,9.57
2022-09-22T17:41:52.719Z,14.00
2022-09-22T17:44:22.960Z,10.63
2022-09-22T17:47:10.366Z,9.80
2022-09-22T17:49:56.438Z,11.57
2022-09-22T17:52:32.078Z,11.13
2022-09-22T17:55:07.494Z,13.27
2022-09-22T17:57:39.918Z,13.05
2022-09-22T18:00:12.571Z,14.77
2022-09-22T18:02:39.699Z,13.30
2022-09-22T18:05:09.000Z,12.90
2022-09-22T18:07:38.243Z,10.15
2022-09-22T18:10:06.897Z,7.25
2022-09-22T18:12:34.359Z,8.48
2022-09-22T18:15:03.538Z,10.30
2022-09-22T18:17:33.464Z,11.52
2022-09-22T18:20:00.702Z,12.25
2022-09-22T18:22:28.618Z,12.60
2022-09-22T18:24:56.263Z,16.05
2022-09-22T18:27:27.139Z,15.05
2022-09-22T18:29:58.628Z,17.23
2022-09-22T18:32:27.309Z,12.82
2022-09-22T18:34:55.367Z,20.17
2022-09-22T18:37:23.609Z,12.43
2022-09-22T18:39:50.717Z,12.73
2022-09-22T18:42:24.422Z,12.32
2022-09-22T18:44:52.529Z,14.02
2022-09-22T18:47:21.132Z,16.27
2022-09-22T18:49:50.171Z,12.35
2022-09-22T18:52:21.759Z,12.77
2022-09-22T18:54:49.111Z,11.70
2022-09-22T18:57:16.075Z,24.33
2022-09-22T18:59:43.154Z,14.68
2022-09-22T19:02:11.952Z,12.95
2022-09-22T19:04:39.637Z,13.45
2022-09-22T19:07:25.115Z,11.23
2022-09-22T19:09:52.949Z,7.63
2022-09-22T19:12:21.869Z,10.50
2022-09-22T19:14:50.154Z,12.73
2022-09-22T19:17:18.019Z,16.10
2022-09-22T19:19:46.735Z,10.95
2022-09-22T19:22:13.720Z,11.30
2022-09-22T19:24:46.056Z,8.57
2022-09-22T19:27:15.717Z,11.05
2022-09-22T19:29:42.717Z,8.52
2022-09-22T19:32:10.221Z,8.32
2022-09-22T19:34:37.272Z,10.73
2022-09-22T19:37:04.340Z,8.68
2022-09-22T19:39:32.295Z,11.05
2022-09-22T19:42:00.098Z,11.02
2022-09-22T19:44:29.650Z,11.35
2022-09-22T19:46:57.153Z,13.02
2022-09-22T19:49:25.521Z,9.77
2022-09-22T19:51:53.523Z,9.77
2022-09-22T19:54:20.964Z,9.57
2022-09-22T19:56:48.635Z,10.52
2022-09-22T19:59:19.705Z,10.80
2022-09-22T20:01:48.140Z,9.02
2022-09-22T20:04:18.073Z,13.80
2022-09-22T20:06:46.096Z,10.20
2022-09-22T20:09:13.465Z,9.53
2022-09-22T20:11:43.127Z,9.05
2022-09-22T20:14:22.220Z,11.43
2022-09-22T20:17:04.963Z,13.27
2022-09-22T20:19:34.967Z,10.50
2022-09-22T20:22:18.098Z,10.18
2022-09-22T20:24:54.801Z,7.88
2022-09-22T20:27:42.041Z,10.70
2022-09-22T20:30:10.253Z,10.25
2022-09-22T20:32:37.815Z,8.90
2022-09-22T20:35:05.267Z,8.77
2022-09-22T20:37:32.414Z,7.72
2022-09-22T20:39:59.436Z,8.40
2022-09-22T20:42:26.478Z,8.23
2022-09-22T20:44:53.424Z,7.70
2022-09-22T20:47:25.483Z,6.72
2022-09-22T20:49:52.515Z,7.25
2022-09-22T20:52:20.996Z,6.30
2022-09-22T20:54:49.039Z,7.03
2022-09-22T20:57:16.210Z,5.00
2022-09-22T20:59:45.771Z,10.13
2022-09-22T21:02:14.269Z,9.82
2022-09-22T21:04:41.587Z,4.70
2022-09-22T21:07:09.048Z,6.28
2022-09-22T21:09:54.624Z,7.15
2022-09-22T21:12:21.593Z,6.72
2022-09-22T21:14:48.809Z,6.78
2022-09-22T21:17:15.795Z,6.33
2022-09-22T21:19:43.407Z,8.88
2022-09-22T21:22:10.658Z,6.37
2022-09-22T21:24:37.662Z,6.70
2022-09-22T21:27:05.230Z,5.55
2022-09-22T21:29:32.447Z,7.67
2022-09-22T21:32:00.636Z,5.80
2022-09-22T21:34:27.794Z,17.30
2022-09-22T21:36:54.758Z,10.50
2022-09-22T21:39:21.741Z,6.27
2022-09-22T21:41:49.199Z,4.60
2022-09-22T21:44:16.242Z,5.93
2022-09-22T21:46:44.296Z,7.03
2022-09-22T21:49:11.739Z,6.40
2022-09-22T21:51:42.372Z,6.15
2022-09-22T21:54:15.063Z,5.72
2022-09-22T21:56:42.591Z,7.28
2022-09-22T21:59:11.879Z,7.07
2022-09-22T22:01:40.686Z,6.83
2022-09-22T22:04:08.839Z,5.80
2022-09-22T22:06:43.578Z,7.20
2022-09-22T22:09:15.284Z,8.57
2022-09-22T22:11:56.496Z,5.10
2022-09-22T22:14:25.956Z,8.48
2022-09-22T22:16:54.903Z,7.18
2022-09-22T22:19:24.855Z,4.97
2022-09-22T22:21:52.445Z,7.10
2022-09-22T22:24:28.791Z,7.40
2022-09-22T22:26:58.062Z,8.20
2022-09-22T22:29:26.701Z,6.73
2022-09-22T22:31:53.928Z,6.30
2022-09-22T22:34:22.915Z,6.30
2022-09-22T22:36:50.306Z,7.70
2022-09-22T22:39:17.436Z,7.07
2022-09-22T22:41:45.713Z,6.13
2022-09-22T22:44:12.768Z,8.40
2022-09-22T22:46:39.926Z,4.97
2022-09-22T22:49:11.600Z,6.10
2022-09-22T22:51:40.323Z,6.17
2022-09-22T22:54:07.387Z,6.40
2022-09-22T22:56:34.358Z,6.93
2022-09-22T22:59:01.429Z,5.53
2022-09-22T23:01:31.942Z,5.20
2022-09-22T23:04:05.134Z,5.67
2022-09-22T23:06:39.564Z,5.67
2022-09-22T23:09:11.096Z,6.80
2022-09-22T23:11:40.102Z,6.93
2022-09-22T23:14:09.429Z,7.30
2022-09-22T23:16:41.643Z,8.57
2022-09-22T23:19:14.297Z,7.70
2022-09-22T23:21:41.308Z,7.60
2022-09-22T23:24:08.496Z,8.07
2022-09-22T23:26:37.727Z,5.27
2022-09-22T23:29:05.368Z,6.20
2022-09-22T23:31:32.725Z,8.50
2022-09-22T23:33:59.743Z,10.03
2022-09-22T23:36:28.738Z,6.67
2022-09-22T23:39:03.938Z,6.03
2022-09-22T23:41:33.194Z,7.50
2022-09-22T23:44:00.608Z,7.37
2022-09-22T23:46:28.033Z,7.80
2022-09-22T23:48:55.728Z,7.03
2022-09-22T23:51:23.224Z,7.43
2022-09-22T23:53:50.181Z,6.20
2022-09-22T23:56:17.496Z,6.60
2022-09-22T23:58:45.484Z,7.83
